sensor_id;sensor_type;location;lat;lon;timestamp;temperature;humidity
56137;DHT22;42008;52.934;5.884;2023-06-22T00:00:58;18.10;99.90
56137;DHT22;42008;52.934;5.884;2023-06-22T00:03:24;17.20;99.90
56137;DHT22;42008;52.934;5.884;2023-06-22T00:05:50;17.60;99.90
56137;DHT22;42008;52.934;5.884;2023-06-22T00:08:17;17.30;99.90
56137;DHT22;42008;52.934;5.884;2023-06-22T00:10:44;18.40;99.90
56137;DHT22;42008;52.934;5.884;2023-06-22T00:13:10;17.60;99.90
56137;DHT22;42008;52.934;5.884;2023-06-22T00:15:37;17.10;99.90
56137;DHT22;42008;52.934;5.884;2023-06-22T00:18:08;17.60;99.90
56137;DHT22;42008;52.934;5.884;2023-06-22T00:20:34;17.00;99.90
56137;DHT22;42008;52.934;5.884;2023-06-22T00:23:03;17.30;99.90
56137;DHT22;42008;52.934;5.884;2023-06-22T00:25:37;17.80;99.90
56137;DHT22;42008;52.934;5.884;2023-06-22T00:28:04;17.80;99.90
56137;DHT22;42008;52.934;5.884;2023-06-22T00:30:31;17.20;99.90
56137;DHT22;42008;52.934;5.884;2023-06-22T00:32:57;17.70;99.90
56137;DHT22;42008;52.934;5.884;2023-06-22T00:35:22;17.30;99.90
56137;DHT22;42008;52.934;5.884;2023-06-22T00:37:48;17.10;99.90
56137;DHT22;42008;52.934;5.884;2023-06-22T00:40:13;17.70;99.90
56137;DHT22;42008;52.934;5.884;2023-06-22T00:42:40;17.50;99.90
56137;DHT22;42008;52.934;5.884;2023-06-22T00:45:06;17.10;99.90
56137;DHT22;42008;52.934;5.884;2023-06-22T00:47:34;16.70;99.90
56137;DHT22;42008;52.934;5.884;2023-06-22T00:50:01;16.30;99.90
56137;DHT22;42008;52.934;5.884;2023-06-22T00:52:28;17.20;99.90
56137;DHT22;42008;52.934;5.884;2023-06-22T00:54:56;17.20;99.90
56137;DHT22;42008;52.934;5.884;2023-06-22T00:57:24;17.60;99.90
56137;DHT22;42008;52.934;5.884;2023-06-22T00:59:54;16.50;99.90
56137;DHT22;42008;52.934;5.884;2023-06-22T01:02:19;17.50;99.90
56137;DHT22;42008;52.934;5.884;2023-06-22T01:04:45;16.30;99.90
56137;DHT22;42008;52.934;5.884;2023-06-22T01:12:26;17.30;99.90
56137;DHT22;42008;52.934;5.884;2023-06-22T01:15:02;17.20;99.90
56137;DHT22;42008;52.934;5.884;2023-06-22T01:17:31;16.00;99.90
56137;DHT22;42008;52.934;5.884;2023-06-22T01:19:57;17.20;99.90
56137;DHT22;42008;52.934;5.884;2023-06-22T01:22:25;17.90;99.90
56137;DHT22;42008;52.934;5.884;2023-06-22T01:25:15;17.30;99.90
56137;DHT22;42008;52.934;5.884;2023-06-22T01:27:57;17.10;99.90
56137;DHT22;42008;52.934;5.884;2023-06-22T01:30:28;16.90;99.90
56137;DHT22;42008;52.934;5.884;2023-06-22T01:32:56;17.40;99.90
56137;DHT22;42008;52.934;5.884;2023-06-22T01:35:22;16.30;99.90
56137;DHT22;42008;52.934;5.884;2023-06-22T01:37:49;18.40;99.90
56137;DHT22;42008;52.934;5.884;2023-06-22T01:40:15;16.40;99.90
56137;DHT22;42008;52.934;5.884;2023-06-22T01:42:41;18.10;99.90
56137;DHT22;42008;52.934;5.884;2023-06-22T01:45:09;16.60;99.90
56137;DHT22;42008;52.934;5.884;2023-06-22T01:47:35;16.60;99.90
56137;DHT22;42008;52.934;5.884;2023-06-22T01:50:01;17.00;99.90
56137;DHT22;42008;52.934;5.884;2023-06-22T01:52:27;16.80;99.90
56137;DHT22;42008;52.934;5.884;2023-06-22T01:54:53;16.70;99.90
56137;DHT22;42008;52.934;5.884;2023-06-22T01:57:18;16.20;99.90
56137;DHT22;42008;52.934;5.884;2023-06-22T02:02:21;17.00;99.90
56137;DHT22;42008;52.934;5.884;2023-06-22T02:04:58;16.10;99.90
56137;DHT22;42008;52.934;5.884;2023-06-22T02:07:30;17.60;99.90
56137;DHT22;42008;52.934;5.884;2023-06-22T02:09:58;17.70;99.90
56137;DHT22;42008;52.934;5.884;2023-06-22T02:12:25;17.10;99.90
56137;DHT22;42008;52.934;5.884;2023-06-22T02:14:53;15.90;99.90
56137;DHT22;42008;52.934;5.884;2023-06-22T02:17:19;17.40;99.90
56137;DHT22;42008;52.934;5.884;2023-06-22T02:19:45;15.80;99.90
56137;DHT22;42008;52.934;5.884;2023-06-22T02:22:11;15.90;99.90
56137;DHT22;42008;52.934;5.884;2023-06-22T02:24:38;17.20;99.90
56137;DHT22;42008;52.934;5.884;2023-06-22T02:27:04;17.10;99.90
56137;DHT22;42008;52.934;5.884;2023-06-22T02:29:31;16.90;99.90
56137;DHT22;42008;52.934;5.884;2023-06-22T02:31:56;17.20;99.90
56137;DHT22;42008;52.934;5.884;2023-06-22T02:34:22;16.30;99.90
56137;DHT22;42008;52.934;5.884;2023-06-22T02:36:48;16.20;99.90
56137;DHT22;42008;52.934;5.884;2023-06-22T02:39:22;17.40;99.90
56137;DHT22;42008;52.934;5.884;2023-06-22T02:41:57;16.50;99.90
56137;DHT22;42008;52.934;5.884;2023-06-22T02:44:22;16.40;99.90
56137;DHT22;42008;52.934;5.884;2023-06-22T02:46:49;16.20;99.90
56137;DHT22;42008;52.934;5.884;2023-06-22T02:49:14;16.40;99.90
56137;DHT22;42008;52.934;5.884;2023-06-22T02:51:45;17.00;99.90
56137;DHT22;42008;52.934;5.884;2023-06-22T02:54:11;17.00;99.90
56137;DHT22;42008;52.934;5.884;2023-06-22T02:56:36;17.50;99.90
56137;DHT22;42008;52.934;5.884;2023-06-22T02:59:02;17.30;99.90
56137;DHT22;42008;52.934;5.884;2023-06-22T03:01:28;17.30;99.90
56137;DHT22;42008;52.934;5.884;2023-06-22T03:03:58;16.10;99.90
56137;DHT22;42008;52.934;5.884;2023-06-22T03:06:24;16.90;99.90
56137;DHT22;42008;52.934;5.884;2023-06-22T03:08:58;17.00;99.90
56137;DHT22;42008;52.934;5.884;2023-06-22T03:11:24;16.60;99.90
56137;DHT22;42008;52.934;5.884;2023-06-22T03:13:49;16.70;99.90
56137;DHT22;42008;52.934;5.884;2023-06-22T03:16:17;16.10;99.90
56137;DHT22;42008;52.934;5.884;2023-06-22T03:18:43;15.90;99.90
56137;DHT22;42008;52.934;5.884;2023-06-22T03:21:09;15.60;99.90
56137;DHT22;42008;52.934;5.884;2023-06-22T03:23:34;16.00;99.90
56137;DHT22;42008;52.934;5.884;2023-06-22T03:26:00;15.60;99.90
56137;DHT22;42008;52.934;5.884;2023-06-22T03:28:26;16.70;99.90
56137;DHT22;42008;52.934;5.884;2023-06-22T03:30:51;15.50;99.90
56137;DHT22;42008;52.934;5.884;2023-06-22T03:33:17;15.30;99.90
56137;DHT22;42008;52.934;5.884;2023-06-22T03:35:42;15.70;99.90
56137;DHT22;42008;52.934;5.884;2023-06-22T03:38:08;15.50;99.90
56137;DHT22;42008;52.934;5.884;2023-06-22T03:40:33;15.50;99.90
56137;DHT22;42008;52.934;5.884;2023-06-22T03:42:59;16.20;99.90
56137;DHT22;42008;52.934;5.884;2023-06-22T03:45:25;17.00;99.90
56137;DHT22;42008;52.934;5.884;2023-06-22T03:47:50;16.20;99.90
56137;DHT22;42008;52.934;5.884;2023-06-22T03:50:16;15.50;99.90
56137;DHT22;42008;52.934;5.884;2023-06-22T03:52:41;15.80;99.90
56137;DHT22;42008;52.934;5.884;2023-06-22T03:55:07;15.70;99.90
56137;DHT22;42008;52.934;5.884;2023-06-22T03:57:33;14.80;99.90
56137;DHT22;42008;52.934;5.884;2023-06-22T04:00:00;15.70;99.90
56137;DHT22;42008;52.934;5.884;2023-06-22T04:02:26;15.20;99.90
56137;DHT22;42008;52.934;5.884;2023-06-22T04:04:51;15.80;99.90
56137;DHT22;42008;52.934;5.884;2023-06-22T04:07:17;15.40;99.90
56137;DHT22;42008;52.934;5.884;2023-06-22T04:09:43;15.70;99.90
56137;DHT22;42008;52.934;5.884;2023-06-22T04:12:09;15.90;99.90
56137;DHT22;42008;52.934;5.884;2023-06-22T04:14:34;16.50;99.90
56137;DHT22;42008;52.934;5.884;2023-06-22T04:17:00;15.80;99.90
56137;DHT22;42008;52.934;5.884;2023-06-22T04:19:26;15.60;99.90
56137;DHT22;42008;52.934;5.884;2023-06-22T04:21:52;15.90;99.90
56137;DHT22;42008;52.934;5.884;2023-06-22T04:24:17;15.90;99.90
56137;DHT22;42008;52.934;5.884;2023-06-22T04:26:43;15.40;99.90
56137;DHT22;42008;52.934;5.884;2023-06-22T04:29:10;15.80;99.90
56137;DHT22;42008;52.934;5.884;2023-06-22T04:31:36;17.30;99.90
56137;DHT22;42008;52.934;5.884;2023-06-22T04:34:06;15.50;99.90
56137;DHT22;42008;52.934;5.884;2023-06-22T04:36:37;15.80;99.90
56137;DHT22;42008;52.934;5.884;2023-06-22T04:39:12;15.60;99.90
56137;DHT22;42008;52.934;5.884;2023-06-22T04:41:41;17.40;99.90
56137;DHT22;42008;52.934;5.884;2023-06-22T04:44:16;16.10;99.90
56137;DHT22;42008;52.934;5.884;2023-06-22T04:46:57;16.90;99.90
56137;DHT22;42008;52.934;5.884;2023-06-22T04:49:28;16.40;99.90
56137;DHT22;42008;52.934;5.884;2023-06-22T04:51:58;16.50;99.90
56137;DHT22;42008;52.934;5.884;2023-06-22T04:54:24;17.90;99.90
56137;DHT22;42008;52.934;5.884;2023-06-22T04:56:50;17.00;99.90
56137;DHT22;42008;52.934;5.884;2023-06-22T04:59:22;17.60;99.90
56137;DHT22;42008;52.934;5.884;2023-06-22T05:01:47;17.60;99.90
56137;DHT22;42008;52.934;5.884;2023-06-22T05:04:13;17.90;99.90
56137;DHT22;42008;52.934;5.884;2023-06-22T05:06:39;17.40;99.90
56137;DHT22;42008;52.934;5.884;2023-06-22T05:09:05;17.60;99.90
56137;DHT22;42008;52.934;5.884;2023-06-22T05:11:31;19.10;99.90
56137;DHT22;42008;52.934;5.884;2023-06-22T05:13:57;17.70;99.90
56137;DHT22;42008;52.934;5.884;2023-06-22T05:16:24;18.40;99.90
56137;DHT22;42008;52.934;5.884;2023-06-22T05:18:54;18.60;99.90
56137;DHT22;42008;52.934;5.884;2023-06-22T05:21:24;18.30;99.90
56137;DHT22;42008;52.934;5.884;2023-06-22T05:23:51;18.50;99.90
56137;DHT22;42008;52.934;5.884;2023-06-22T05:26:17;18.50;99.90
56137;DHT22;42008;52.934;5.884;2023-06-22T05:28:42;19.70;99.90
56137;DHT22;42008;52.934;5.884;2023-06-22T05:31:14;19.30;99.90
56137;DHT22;42008;52.934;5.884;2023-06-22T05:33:44;18.80;99.90
56137;DHT22;42008;52.934;5.884;2023-06-22T05:36:10;20.10;99.90
56137;DHT22;42008;52.934;5.884;2023-06-22T05:38:36;19.60;99.90
56137;DHT22;42008;52.934;5.884;2023-06-22T05:41:02;20.20;99.90
56137;DHT22;42008;52.934;5.884;2023-06-22T05:43:28;19.70;99.90
56137;DHT22;42008;52.934;5.884;2023-06-22T05:45:53;20.20;99.90
56137;DHT22;42008;52.934;5.884;2023-06-22T05:48:19;18.40;99.90
56137;DHT22;42008;52.934;5.884;2023-06-22T05:50:45;20.30;99.90
56137;DHT22;42008;52.934;5.884;2023-06-22T05:53:10;19.40;99.90
56137;DHT22;42008;52.934;5.884;2023-06-22T05:55:36;20.10;99.90
56137;DHT22;42008;52.934;5.884;2023-06-22T05:58:02;19.00;99.90
56137;DHT22;42008;52.934;5.884;2023-06-22T06:00:31;20.50;99.90
56137;DHT22;42008;52.934;5.884;2023-06-22T06:02:57;20.10;99.90
56137;DHT22;42008;52.934;5.884;2023-06-22T06:05:31;19.80;99.90
56137;DHT22;42008;52.934;5.884;2023-06-22T06:07:59;20.10;99.90
56137;DHT22;42008;52.934;5.884;2023-06-22T06:10:25;20.60;99.90
56137;DHT22;42008;52.934;5.884;2023-06-22T06:12:50;19.30;99.90
56137;DHT22;42008;52.934;5.884;2023-06-22T06:15:16;20.40;99.90
56137;DHT22;42008;52.934;5.884;2023-06-22T06:17:49;20.20;99.90
56137;DHT22;42008;52.934;5.884;2023-06-22T06:20:17;20.40;99.90
56137;DHT22;42008;52.934;5.884;2023-06-22T06:22:43;20.40;99.90
56137;DHT22;42008;52.934;5.884;2023-06-22T06:25:09;20.80;99.90
56137;DHT22;42008;52.934;5.884;2023-06-22T06:27:34;20.80;99.90
56137;DHT22;42008;52.934;5.884;2023-06-22T06:30:00;20.80;99.90
56137;DHT22;42008;52.934;5.884;2023-06-22T06:32:26;20.70;99.90
56137;DHT22;42008;52.934;5.884;2023-06-22T06:34:51;21.00;99.90
56137;DHT22;42008;52.934;5.884;2023-06-22T06:37:17;21.10;99.90
56137;DHT22;42008;52.934;5.884;2023-06-22T06:39:44;21.30;99.90
56137;DHT22;42008;52.934;5.884;2023-06-22T06:42:09;20.40;99.90
56137;DHT22;42008;52.934;5.884;2023-06-22T06:44:36;20.40;99.90
56137;DHT22;42008;52.934;5.884;2023-06-22T06:47:04;20.70;99.90
56137;DHT22;42008;52.934;5.884;2023-06-22T06:49:29;20.60;99.90
56137;DHT22;42008;52.934;5.884;2023-06-22T06:51:55;21.00;99.90
56137;DHT22;42008;52.934;5.884;2023-06-22T06:54:21;21.60;99.90
56137;DHT22;42008;52.934;5.884;2023-06-22T06:56:47;20.90;99.90
56137;DHT22;42008;52.934;5.884;2023-06-22T06:59:14;22.80;99.90
56137;DHT22;42008;52.934;5.884;2023-06-22T07:01:41;21.20;99.90
56137;DHT22;42008;52.934;5.884;2023-06-22T07:04:06;21.50;99.90
56137;DHT22;42008;52.934;5.884;2023-06-22T07:06:32;21.10;99.90
56137;DHT22;42008;52.934;5.884;2023-06-22T07:08:59;21.20;99.90
56137;DHT22;42008;52.934;5.884;2023-06-22T07:11:25;21.00;99.90
56137;DHT22;42008;52.934;5.884;2023-06-22T07:13:51;21.30;99.90
56137;DHT22;42008;52.934;5.884;2023-06-22T07:16:16;21.70;99.90
56137;DHT22;42008;52.934;5.884;2023-06-22T07:18:42;22.80;99.90
56137;DHT22;42008;52.934;5.884;2023-06-22T07:21:07;21.90;99.90
56137;DHT22;42008;52.934;5.884;2023-06-22T07:23:33;21.20;99.90
56137;DHT22;42008;52.934;5.884;2023-06-22T07:25:59;21.80;99.90
56137;DHT22;42008;52.934;5.884;2023-06-22T07:28:27;22.80;99.90
56137;DHT22;42008;52.934;5.884;2023-06-22T07:30:53;21.60;99.90
56137;DHT22;42008;52.934;5.884;2023-06-22T07:33:19;23.30;99.90
56137;DHT22;42008;52.934;5.884;2023-06-22T07:35:45;22.10;99.90
56137;DHT22;42008;52.934;5.884;2023-06-22T07:38:10;23.80;99.90
56137;DHT22;42008;52.934;5.884;2023-06-22T07:40:36;23.10;99.90
56137;DHT22;42008;52.934;5.884;2023-06-22T07:43:02;23.40;99.90
56137;DHT22;42008;52.934;5.884;2023-06-22T07:45:30;23.60;99.90
56137;DHT22;42008;52.934;5.884;2023-06-22T07:47:55;23.30;99.90
56137;DHT22;42008;52.934;5.884;2023-06-22T07:50:21;23.50;99.90
56137;DHT22;42008;52.934;5.884;2023-06-22T07:52:46;23.90;99.90
56137;DHT22;42008;52.934;5.884;2023-06-22T07:55:13;24.20;99.90
56137;DHT22;42008;52.934;5.884;2023-06-22T07:57:39;23.80;99.90
56137;DHT22;42008;52.934;5.884;2023-06-22T08:00:06;24.40;99.90
56137;DHT22;42008;52.934;5.884;2023-06-22T08:02:42;23.90;99.90
56137;DHT22;42008;52.934;5.884;2023-06-22T08:05:09;24.30;99.90
56137;DHT22;42008;52.934;5.884;2023-06-22T08:07:35;24.10;99.90
56137;DHT22;42008;52.934;5.884;2023-06-22T08:10:03;24.50;99.90
56137;DHT22;42008;52.934;5.884;2023-06-22T08:12:29;24.10;99.90
56137;DHT22;42008;52.934;5.884;2023-06-22T08:14:54;24.20;99.90
56137;DHT22;42008;52.934;5.884;2023-06-22T08:17:20;24.50;99.90
56137;DHT22;42008;52.934;5.884;2023-06-22T08:19:45;25.80;99.90
56137;DHT22;42008;52.934;5.884;2023-06-22T08:22:11;24.30;99.90
56137;DHT22;42008;52.934;5.884;2023-06-22T08:24:36;24.40;99.90
56137;DHT22;42008;52.934;5.884;2023-06-22T08:27:02;24.80;99.90
56137;DHT22;42008;52.934;5.884;2023-06-22T08:29:28;24.40;99.90
56137;DHT22;42008;52.934;5.884;2023-06-22T08:31:53;26.30;99.90
56137;DHT22;42008;52.934;5.884;2023-06-22T08:34:19;26.60;99.90
56137;DHT22;42008;52.934;5.884;2023-06-22T08:36:53;26.40;99.90
56137;DHT22;42008;52.934;5.884;2023-06-22T08:39:22;26.40;99.90
56137;DHT22;42008;52.934;5.884;2023-06-22T08:41:48;26.70;99.90
56137;DHT22;42008;52.934;5.884;2023-06-22T08:44:13;24.90;99.90
56137;DHT22;42008;52.934;5.884;2023-06-22T08:46:39;26.70;99.90
56137;DHT22;42008;52.934;5.884;2023-06-22T08:49:06;26.80;99.90
56137;DHT22;42008;52.934;5.884;2023-06-22T08:51:34;25.70;99.90
56137;DHT22;42008;52.934;5.884;2023-06-22T08:54:00;26.60;99.90
56137;DHT22;42008;52.934;5.884;2023-06-22T08:56:25;26.50;99.90
56137;DHT22;42008;52.934;5.884;2023-06-22T08:58:51;27.00;99.90
56137;DHT22;42008;52.934;5.884;2023-06-22T09:01:16;25.50;99.90
56137;DHT22;42008;52.934;5.884;2023-06-22T09:03:42;26.70;73.00
56137;DHT22;42008;52.934;5.884;2023-06-22T09:06:08;26.60;91.80
56137;DHT22;42008;52.934;5.884;2023-06-22T09:08:39;25.30;7.20
56137;DHT22;42008;52.934;5.884;2023-06-22T09:11:04;26.80;16.40
56137;DHT22;42008;52.934;5.884;2023-06-22T09:13:31;26.80;14.10
56137;DHT22;42008;52.934;5.884;2023-06-22T09:15:57;27.00;1.00
56137;DHT22;42008;52.934;5.884;2023-06-22T09:18:22;27.20;1.00
56137;DHT22;42008;52.934;5.884;2023-06-22T09:20:48;26.90;1.00
56137;DHT22;42008;52.934;5.884;2023-06-22T09:23:14;27.30;1.00
56137;DHT22;42008;52.934;5.884;2023-06-22T09:25:40;27.30;1.00
56137;DHT22;42008;52.934;5.884;2023-06-22T09:28:06;26.80;1.00
56137;DHT22;42008;52.934;5.884;2023-06-22T09:30:32;26.90;1.00
56137;DHT22;42008;52.934;5.884;2023-06-22T09:32:57;27.50;99.90
56137;DHT22;42008;52.934;5.884;2023-06-22T09:35:23;27.10;99.90
56137;DHT22;42008;52.934;5.884;2023-06-22T09:37:48;28.00;99.90
56137;DHT22;42008;52.934;5.884;2023-06-22T09:40:14;28.10;99.90
56137;DHT22;42008;52.934;5.884;2023-06-22T09:42:42;27.70;99.90
56137;DHT22;42008;52.934;5.884;2023-06-22T09:45:08;27.90;99.90
56137;DHT22;42008;52.934;5.884;2023-06-22T09:47:34;27.90;1.00
56137;DHT22;42008;52.934;5.884;2023-06-22T09:50:00;27.80;1.00
56137;DHT22;42008;52.934;5.884;2023-06-22T09:52:25;27.70;99.90
56137;DHT22;42008;52.934;5.884;2023-06-22T09:54:51;28.20;99.90
56137;DHT22;42008;52.934;5.884;2023-06-22T09:57:16;28.30;1.00
56137;DHT22;42008;52.934;5.884;2023-06-22T09:59:42;28.50;1.00
56137;DHT22;42008;52.934;5.884;2023-06-22T10:02:08;28.00;1.00
56137;DHT22;42008;52.934;5.884;2023-06-22T10:04:34;28.30;99.90
56137;DHT22;42008;52.934;5.884;2023-06-22T10:07:00;28.20;99.90
56137;DHT22;42008;52.934;5.884;2023-06-22T10:09:26;28.50;99.90
56137;DHT22;42008;52.934;5.884;2023-06-22T10:11:52;28.50;99.90
56137;DHT22;42008;52.934;5.884;2023-06-22T10:14:17;29.00;99.90
56137;DHT22;42008;52.934;5.884;2023-06-22T10:16:43;28.90;99.90
56137;DHT22;42008;52.934;5.884;2023-06-22T10:19:08;29.30;99.90
56137;DHT22;42008;52.934;5.884;2023-06-22T10:21:34;29.20;99.90
56137;DHT22;42008;52.934;5.884;2023-06-22T10:24:00;29.00;99.50
56137;DHT22;42008;52.934;5.884;2023-06-22T10:26:32;30.50;84.20
56137;DHT22;42008;52.934;5.884;2023-06-22T10:28:57;28.80;72.40
56137;DHT22;42008;52.934;5.884;2023-06-22T10:31:23;29.20;63.80
56137;DHT22;42008;52.934;5.884;2023-06-22T10:33:48;29.10;30.40
56137;DHT22;42008;52.934;5.884;2023-06-22T10:36:15;30.70;1.00
56137;DHT22;42008;52.934;5.884;2023-06-22T10:38:40;30.60;1.00
56137;DHT22;42008;52.934;5.884;2023-06-22T10:41:06;29.20;1.00
56137;DHT22;42008;52.934;5.884;2023-06-22T10:43:32;30.80;1.00
56137;DHT22;42008;52.934;5.884;2023-06-22T10:45:57;28.90;1.00
56137;DHT22;42008;52.934;5.884;2023-06-22T10:48:23;28.90;1.00
56137;DHT22;42008;52.934;5.884;2023-06-22T10:50:48;30.80;1.00
56137;DHT22;42008;52.934;5.884;2023-06-22T10:53:14;29.30;1.00
56137;DHT22;42008;52.934;5.884;2023-06-22T10:55:39;30.90;1.00
56137;DHT22;42008;52.934;5.884;2023-06-22T10:58:05;29.00;1.00
56137;DHT22;42008;52.934;5.884;2023-06-22T11:00:31;29.20;1.00
56137;DHT22;42008;52.934;5.884;2023-06-22T11:02:56;31.10;1.00
56137;DHT22;42008;52.934;5.884;2023-06-22T11:05:23;30.90;1.00
56137;DHT22;42008;52.934;5.884;2023-06-22T11:07:49;29.40;1.00
56137;DHT22;42008;52.934;5.884;2023-06-22T11:10:15;30.90;1.00
56137;DHT22;42008;52.934;5.884;2023-06-22T11:12:41;30.50;1.00
56137;DHT22;42008;52.934;5.884;2023-06-22T11:15:08;30.60;1.00
56137;DHT22;42008;52.934;5.884;2023-06-22T11:17:34;29.00;1.00
56137;DHT22;42008;52.934;5.884;2023-06-22T11:20:00;28.90;99.90
56137;DHT22;42008;52.934;5.884;2023-06-22T11:22:26;30.60;99.90
56137;DHT22;42008;52.934;5.884;2023-06-22T11:24:52;29.80;99.90
56137;DHT22;42008;52.934;5.884;2023-06-22T11:27:17;30.70;99.90
56137;DHT22;42008;52.934;5.884;2023-06-22T11:29:43;30.30;99.90
56137;DHT22;42008;52.934;5.884;2023-06-22T11:32:09;29.00;99.90
56137;DHT22;42008;52.934;5.884;2023-06-22T11:34:35;30.20;99.90
56137;DHT22;42008;52.934;5.884;2023-06-22T11:37:00;29.00;99.90
56137;DHT22;42008;52.934;5.884;2023-06-22T11:39:26;28.50;99.90
56137;DHT22;42008;52.934;5.884;2023-06-22T11:41:52;28.60;99.90
56137;DHT22;42008;52.934;5.884;2023-06-22T11:44:18;30.40;99.90
56137;DHT22;42008;52.934;5.884;2023-06-22T11:46:43;30.50;99.90
56137;DHT22;42008;52.934;5.884;2023-06-22T11:49:09;30.40;99.90
56137;DHT22;42008;52.934;5.884;2023-06-22T11:51:35;28.70;99.90
56137;DHT22;42008;52.934;5.884;2023-06-22T11:54:00;28.70;99.90
56137;DHT22;42008;52.934;5.884;2023-06-22T11:56:26;30.20;99.90
56137;DHT22;42008;52.934;5.884;2023-06-22T11:58:53;30.70;99.90
56137;DHT22;42008;52.934;5.884;2023-06-22T12:01:19;30.40;99.90
56137;DHT22;42008;52.934;5.884;2023-06-22T12:03:45;28.90;99.90
56137;DHT22;42008;52.934;5.884;2023-06-22T12:06:11;30.30;99.90
56137;DHT22;42008;52.934;5.884;2023-06-22T12:08:37;28.30;99.90
56137;DHT22;42008;52.934;5.884;2023-06-22T12:11:02;28.70;99.90
56137;DHT22;42008;52.934;5.884;2023-06-22T12:13:28;30.40;99.90
56137;DHT22;42008;52.934;5.884;2023-06-22T12:15:53;30.00;99.90
56137;DHT22;42008;52.934;5.884;2023-06-22T12:18:19;30.00;99.90
56137;DHT22;42008;52.934;5.884;2023-06-22T12:20:46;30.10;99.90
56137;DHT22;42008;52.934;5.884;2023-06-22T12:23:12;30.00;99.90
56137;DHT22;42008;52.934;5.884;2023-06-22T12:25:38;28.50;99.90
56137;DHT22;42008;52.934;5.884;2023-06-22T12:28:04;28.50;99.90
56137;DHT22;42008;52.934;5.884;2023-06-22T12:30:30;28.50;99.90
56137;DHT22;42008;52.934;5.884;2023-06-22T12:32:56;30.50;99.90
56137;DHT22;42008;52.934;5.884;2023-06-22T12:35:21;29.10;99.90
56137;DHT22;42008;52.934;5.884;2023-06-22T12:37:47;30.00;99.90
56137;DHT22;42008;52.934;5.884;2023-06-22T12:40:13;30.10;99.90
56137;DHT22;42008;52.934;5.884;2023-06-22T12:42:39;28.70;99.90
56137;DHT22;42008;52.934;5.884;2023-06-22T12:45:05;29.20;99.90
56137;DHT22;42008;52.934;5.884;2023-06-22T12:47:31;30.10;99.90
56137;DHT22;42008;52.934;5.884;2023-06-22T12:49:56;28.70;99.90
56137;DHT22;42008;52.934;5.884;2023-06-22T12:52:23;29.90;99.90
56137;DHT22;42008;52.934;5.884;2023-06-22T12:54:48;28.90;99.90
56137;DHT22;42008;52.934;5.884;2023-06-22T12:57:14;28.20;99.90
56137;DHT22;42008;52.934;5.884;2023-06-22T12:59:40;28.10;99.90
56137;DHT22;42008;52.934;5.884;2023-06-22T13:02:05;28.40;99.90
56137;DHT22;42008;52.934;5.884;2023-06-22T13:04:31;29.70;99.90
56137;DHT22;42008;52.934;5.884;2023-06-22T13:06:57;28.50;99.90
56137;DHT22;42008;52.934;5.884;2023-06-22T13:09:22;28.30;99.90
56137;DHT22;42008;52.934;5.884;2023-06-22T13:11:48;28.30;99.90
56137;DHT22;42008;52.934;5.884;2023-06-22T13:14:13;28.20;99.90
56137;DHT22;42008;52.934;5.884;2023-06-22T13:16:41;29.70;99.90
56137;DHT22;42008;52.934;5.884;2023-06-22T13:19:07;28.50;99.90
56137;DHT22;42008;52.934;5.884;2023-06-22T13:21:32;28.50;99.90
56137;DHT22;42008;52.934;5.884;2023-06-22T13:23:59;28.10;99.90
56137;DHT22;42008;52.934;5.884;2023-06-22T13:26:25;28.40;99.90
56137;DHT22;42008;52.934;5.884;2023-06-22T13:28:51;27.90;99.90
56137;DHT22;42008;52.934;5.884;2023-06-22T13:31:16;28.00;99.90
56137;DHT22;42008;52.934;5.884;2023-06-22T13:33:42;28.00;99.90
56137;DHT22;42008;52.934;5.884;2023-06-22T13:36:07;28.20;99.90
56137;DHT22;42008;52.934;5.884;2023-06-22T13:38:35;27.30;99.90
56137;DHT22;42008;52.934;5.884;2023-06-22T13:41:04;27.50;99.90
56137;DHT22;42008;52.934;5.884;2023-06-22T13:43:29;27.10;99.90
56137;DHT22;42008;52.934;5.884;2023-06-22T13:45:55;27.60;99.90
56137;DHT22;42008;52.934;5.884;2023-06-22T13:48:20;27.50;99.90
56137;DHT22;42008;52.934;5.884;2023-06-22T13:50:46;27.20;99.90
56137;DHT22;42008;52.934;5.884;2023-06-22T13:53:12;27.70;99.90
56137;DHT22;42008;52.934;5.884;2023-06-22T13:55:37;27.70;99.90
56137;DHT22;42008;52.934;5.884;2023-06-22T13:58:03;27.90;99.90
56137;DHT22;42008;52.934;5.884;2023-06-22T14:00:28;27.20;99.90
56137;DHT22;42008;52.934;5.884;2023-06-22T14:02:54;25.80;99.90
56137;DHT22;42008;52.934;5.884;2023-06-22T14:05:20;27.20;99.90
56137;DHT22;42008;52.934;5.884;2023-06-22T14:07:45;26.60;99.90
56137;DHT22;42008;52.934;5.884;2023-06-22T14:10:11;26.80;99.90
56137;DHT22;42008;52.934;5.884;2023-06-22T14:12:37;26.60;99.90
56137;DHT22;42008;52.934;5.884;2023-06-22T14:15:02;27.00;99.90
56137;DHT22;42008;52.934;5.884;2023-06-22T14:17:28;26.30;99.90
56137;DHT22;42008;52.934;5.884;2023-06-22T14:19:54;25.30;99.90
56137;DHT22;42008;52.934;5.884;2023-06-22T14:22:20;26.80;99.90
56137;DHT22;42008;52.934;5.884;2023-06-22T14:24:47;26.90;99.90
56137;DHT22;42008;52.934;5.884;2023-06-22T14:27:13;26.20;99.90
56137;DHT22;42008;52.934;5.884;2023-06-22T14:29:38;25.80;99.90
56137;DHT22;42008;52.934;5.884;2023-06-22T14:32:04;24.70;99.90
56137;DHT22;42008;52.934;5.884;2023-06-22T14:34:32;25.90;99.90
56137;DHT22;42008;52.934;5.884;2023-06-22T14:36:57;24.60;99.90
56137;DHT22;42008;52.934;5.884;2023-06-22T14:39:23;26.50;99.90
56137;DHT22;42008;52.934;5.884;2023-06-22T14:41:48;24.50;99.90
56137;DHT22;42008;52.934;5.884;2023-06-22T14:44:15;24.60;99.90
56137;DHT22;42008;52.934;5.884;2023-06-22T14:46:40;26.30;99.90
56137;DHT22;42008;52.934;5.884;2023-06-22T14:49:06;24.50;99.90
56137;DHT22;42008;52.934;5.884;2023-06-22T14:51:31;25.90;99.90
56137;DHT22;42008;52.934;5.884;2023-06-22T14:53:57;24.50;99.90
56137;DHT22;42008;52.934;5.884;2023-06-22T14:56:23;25.80;99.90
56137;DHT22;42008;52.934;5.884;2023-06-22T14:58:48;24.90;99.90
56137;DHT22;42008;52.934;5.884;2023-06-22T15:01:16;24.10;99.90
56137;DHT22;42008;52.934;5.884;2023-06-22T15:03:43;24.10;1.00
56137;DHT22;42008;52.934;5.884;2023-06-22T15:06:09;23.70;1.00
56137;DHT22;42008;52.934;5.884;2023-06-22T15:08:37;23.60;1.00
56137;DHT22;42008;52.934;5.884;2023-06-22T15:11:04;23.70;1.00
56137;DHT22;42008;52.934;5.884;2023-06-22T15:13:33;25.30;1.00
56137;DHT22;42008;52.934;5.884;2023-06-22T15:16:02;25.10;1.00
56137;DHT22;42008;52.934;5.884;2023-06-22T15:18:31;23.90;64.90
56137;DHT22;42008;52.934;5.884;2023-06-22T15:20:59;23.50;99.90
56137;DHT22;42008;52.934;5.884;2023-06-22T15:23:27;23.70;99.90
56137;DHT22;42008;52.934;5.884;2023-06-22T15:25:54;23.60;99.90
56137;DHT22;42008;52.934;5.884;2023-06-22T15:28:20;23.60;99.90
56137;DHT22;42008;52.934;5.884;2023-06-22T15:30:47;23.70;99.90
56137;DHT22;42008;52.934;5.884;2023-06-22T15:33:13;24.10;99.90
56137;DHT22;42008;52.934;5.884;2023-06-22T15:35:39;23.50;99.90